createdAt,value
2023-03-05T00:00:39.677Z,76.10
2023-03-05T00:03:06.079Z,75.34
2023-03-05T00:05:32.484Z,74.52
2023-03-05T00:07:58.949Z,76.06
2023-03-05T00:10:25.432Z,76.25
2023-03-05T00:12:53.117Z,75.16
2023-03-05T00:15:20.412Z,73.95
2023-03-05T00:17:46.773Z,73.58
2023-03-05T00:20:13.621Z,73.45
2023-03-05T00:22:40.013Z,73.60
2023-03-05T00:25:07.311Z,74.79
2023-03-05T00:27:33.670Z,73.53
2023-03-05T00:30:01.392Z,72.53
2023-03-05T00:32:27.917Z,73.77
2023-03-05T00:34:54.359Z,72.96
2023-03-05T00:37:21.079Z,73.75
2023-03-05T00:39:47.461Z,74.31
2023-03-05T00:42:13.827Z,73.92
2023-03-05T00:44:40.241Z,74.83
2023-03-05T00:47:07.994Z,75.54
2023-03-05T00:49:34.390Z,75.14
2023-03-05T00:52:00.763Z,75.97
2023-03-05T00:54:27.257Z,76.02
2023-03-05T00:56:53.622Z,75.33
2023-03-05T00:59:19.993Z,74.41
2023-03-05T01:01:46.361Z,75.88
2023-03-05T01:04:14.037Z,74.54
2023-03-05T01:06:40.548Z,75.65
2023-03-05T01:09:06.918Z,75.65
2023-03-05T01:11:33.269Z,75.94
2023-03-05T01:13:59.829Z,76.42
2023-03-05T01:16:26.256Z,76.44
2023-03-05T01:18:52.694Z,75.21
2023-03-05T01:21:20.566Z,75.09
2023-03-05T01:23:46.923Z,75.29
2023-03-05T01:26:13.294Z,75.47
2023-03-05T01:28:39.690Z,76.10
2023-03-05T01:31:08.346Z,77.44
2023-03-05T01:33:34.791Z,76.16
2023-03-05T01:36:01.245Z,75.89
2023-03-05T01:38:28.939Z,75.76
2023-03-05T01:40:55.310Z,75.23
2023-03-05T01:43:25.173Z,75.28
2023-03-05T01:46:21.468Z,75.80
2023-03-05T01:48:51.162Z,75.87
2023-03-05T01:51:19.458Z,75.58
2023-03-05T01:53:47.520Z,75.59
2023-03-05T01:56:14.543Z,76.01
2023-03-05T01:58:41.361Z,75.09
2023-03-05T02:01:07.860Z,75.43
2023-03-05T02:03:35.146Z,75.72
2023-03-05T02:06:01.506Z,77.01
2023-03-05T02:08:27.894Z,77.21
2023-03-05T02:10:56.666Z,76.18
2023-03-05T02:13:24.897Z,75.17
2023-03-05T02:15:53.823Z,76.16
2023-03-05T02:18:23.210Z,76.55
2023-03-05T02:20:51.776Z,77.59
2023-03-05T02:23:21.457Z,77.27
2023-03-05T02:25:48.022Z,76.84
2023-03-05T02:28:18.188Z,76.27
2023-03-05T02:30:44.788Z,77.43
2023-03-05T02:33:13.286Z,76.88
2023-03-05T02:35:39.854Z,78.30
2023-03-05T02:38:06.343Z,77.70
2023-03-05T02:40:34.068Z,77.00
2023-03-05T02:43:00.472Z,77.63
2023-03-05T02:45:26.903Z,76.39
2023-03-05T02:47:53.469Z,76.58
2023-03-05T02:50:19.866Z,77.29
2023-03-05T02:52:46.424Z,77.98
2023-03-05T02:55:13.006Z,78.84
2023-03-05T02:57:40.726Z,77.37
2023-03-05T03:00:08.616Z,77.57
2023-03-05T03:02:35.116Z,78.81
2023-03-05T03:05:01.646Z,78.09
2023-03-05T03:07:28.144Z,77.92
2023-03-05T03:09:55.102Z,78.12
2023-03-05T03:12:21.534Z,78.38
2023-03-05T03:14:49.239Z,80.09
2023-03-05T03:17:17.468Z,78.69
2023-03-05T03:19:45.113Z,78.67
2023-03-05T03:22:13.681Z,79.64
2023-03-05T03:24:43.092Z,81.66
2023-03-05T03:27:09.562Z,80.65
2023-03-05T03:29:35.972Z,80.41
2023-03-05T03:32:03.928Z,82.15
2023-03-05T03:34:30.358Z,80.09
2023-03-05T03:36:56.728Z,78.73
2023-03-05T03:39:23.138Z,82.34
2023-03-05T03:41:52.245Z,84.32
2023-03-05T03:44:19.774Z,82.83
2023-03-05T03:46:47.640Z,81.00
2023-03-05T03:49:17.637Z,81.17
2023-03-05T03:51:43.998Z,81.61
2023-03-05T03:54:10.520Z,81.55
2023-03-05T03:56:36.912Z,81.00
2023-03-05T03:59:03.322Z,79.69
2023-03-05T04:01:29.710Z,79.45
2023-03-05T04:03:56.104Z,81.30
2023-03-05T04:06:24.095Z,82.66
2023-03-05T04:08:50.545Z,80.33
2023-03-05T04:11:17.317Z,80.18
2023-03-05T04:13:43.670Z,80.62
2023-03-05T04:16:10.122Z,80.81
2023-03-05T04:18:36.528Z,82.53
2023-03-05T04:21:03.373Z,80.38
2023-03-05T04:23:31.082Z,78.74
2023-03-05T04:25:57.528Z,80.91
2023-03-05T04:28:24.233Z,78.86
2023-03-05T04:30:50.816Z,79.00
2023-03-05T04:33:17.253Z,78.63
2023-03-05T04:35:43.798Z,78.42
2023-03-05T04:38:10.505Z,76.96
2023-03-05T04:40:38.596Z,77.44
2023-03-05T04:43:05.470Z,81.04
2023-03-05T04:45:32.103Z,79.00
2023-03-05T04:47:58.849Z,78.78
2023-03-05T04:50:25.671Z,78.49
2023-03-05T04:52:52.235Z,78.27
2023-03-05T04:55:18.825Z,79.25
2023-03-05T04:57:46.750Z,77.80
2023-03-05T05:00:16.018Z,78.10
2023-03-05T05:02:43.802Z,78.27
2023-03-05T05:05:13.616Z,78.54
2023-03-05T05:07:40.364Z,78.50
2023-03-05T05:10:07.664Z,78.37
2023-03-05T05:12:35.067Z,78.60
2023-03-05T05:15:03.501Z,79.96
2023-03-05T05:17:30.525Z,78.98
2023-03-05T05:19:57.464Z,79.11
2023-03-05T05:22:23.885Z,78.57
2023-03-05T05:24:50.284Z,77.90
2023-03-05T05:27:16.745Z,77.96
2023-03-05T05:29:43.114Z,80.14
2023-03-05T05:32:10.809Z,79.09
2023-03-05T05:34:37.209Z,79.31
2023-03-05T05:37:03.603Z,79.44
2023-03-05T05:39:29.936Z,81.00
2023-03-05T05:41:56.316Z,79.13
2023-03-05T05:44:22.653Z,79.17
2023-03-05T05:46:49.065Z,79.53
2023-03-05T05:49:16.818Z,79.20
2023-03-05T05:51:43.193Z,80.44
2023-03-05T05:54:12.355Z,79.24
2023-03-05T05:56:38.746Z,79.94
2023-03-05T05:59:05.688Z,79.45
2023-03-05T06:01:32.846Z,79.33
2023-03-05T06:03:59.519Z,78.78
2023-03-05T06:06:28.007Z,78.87
2023-03-05T06:08:55.298Z,79.12
2023-03-05T06:11:21.833Z,81.06
2023-03-05T06:13:49.200Z,79.53
2023-03-05T06:16:17.930Z,79.43
2023-03-05T06:18:44.689Z,79.43
2023-03-05T06:21:12.733Z,81.37
2023-03-05T06:23:41.063Z,78.48
2023-03-05T06:26:08.527Z,79.13
2023-03-05T06:28:35.411Z,78.57
2023-03-05T06:31:03.241Z,78.84
2023-03-05T06:33:30.254Z,77.92
2023-03-05T06:35:56.851Z,79.05
2023-03-05T06:38:24.130Z,78.23
2023-03-05T06:40:52.276Z,76.57
2023-03-05T06:43:18.644Z,76.68
2023-03-05T06:45:45.419Z,76.34
2023-03-05T06:48:11.872Z,77.81
2023-03-05T06:50:38.586Z,76.98
2023-03-05T06:53:04.939Z,76.24
2023-03-05T06:55:31.306Z,76.67
2023-03-05T06:57:58.962Z,75.95
2023-03-05T07:00:25.826Z,75.57
2023-03-05T07:02:52.238Z,75.88
2023-03-05T07:05:18.637Z,76.97
2023-03-05T07:07:44.980Z,76.02
2023-03-05T07:10:12.006Z,75.47
2023-03-05T07:12:38.418Z,75.31
2023-03-05T07:15:07.866Z,75.16
2023-03-05T07:17:34.302Z,77.61
2023-03-05T07:20:00.946Z,75.42
2023-03-05T07:22:27.340Z,75.22
2023-03-05T07:24:53.768Z,75.42
2023-03-05T07:27:20.116Z,75.68
2023-03-05T07:29:46.519Z,75.07
2023-03-05T07:32:14.321Z,74.76
2023-03-05T07:34:40.736Z,74.33
2023-03-05T07:37:07.081Z,74.95
2023-03-05T07:39:33.464Z,74.20
2023-03-05T07:41:59.962Z,73.96
2023-03-05T07:44:26.359Z,74.81
2023-03-05T07:46:52.904Z,75.29
2023-03-05T07:49:20.596Z,77.34
2023-03-05T07:51:46.951Z,74.77
2023-03-05T07:54:13.315Z,74.89
2023-03-05T07:56:39.699Z,77.16
2023-03-05T07:59:08.668Z,75.13
2023-03-05T08:01:36.258Z,75.54
2023-03-05T08:04:03.720Z,76.29
2023-03-05T08:06:31.433Z,75.03
2023-03-05T08:08:58.749Z,74.65
2023-03-05T08:11:25.797Z,75.74
2023-03-05T08:13:52.199Z,75.51
2023-03-05T08:16:20.629Z,74.81
2023-03-05T08:18:47.705Z,74.37
2023-03-05T08:21:18.964Z,74.56
2023-03-05T08:23:46.825Z,74.59
2023-03-05T08:26:15.577Z,76.15
2023-03-05T08:28:42.002Z,74.25
2023-03-05T08:31:09.349Z,71.29
2023-03-05T08:33:35.864Z,70.39
2023-03-05T08:36:02.229Z,69.58
2023-03-05T08:38:28.586Z,74.08
2023-03-05T08:40:56.339Z,71.78
2023-03-05T08:43:22.807Z,69.04
2023-03-05T08:45:49.164Z,68.61
2023-03-05T08:48:15.559Z,69.39
2023-03-05T08:50:42.019Z,69.96
2023-03-05T08:53:08.538Z,69.43
2023-03-05T08:55:34.960Z,70.83
2023-03-05T08:58:02.714Z,69.44
2023-03-05T09:00:29.114Z,69.49
2023-03-05T09:02:55.670Z,71.62
2023-03-05T09:05:22.096Z,71.56
2023-03-05T09:07:48.633Z,70.38
2023-03-05T09:10:15.296Z,69.29
2023-03-05T09:12:41.890Z,70.04
2023-03-05T09:15:11.386Z,71.26
2023-03-05T09:17:38.784Z,70.02
2023-03-05T09:20:06.664Z,69.91
2023-03-05T09:22:33.224Z,71.36
2023-03-05T09:24:59.592Z,70.66
2023-03-05T09:27:26.067Z,72.99
2023-03-05T09:29:52.456Z,70.38
2023-03-05T09:32:20.163Z,71.49
2023-03-05T09:34:46.550Z,71.34
2023-03-05T09:37:12.924Z,69.64
2023-03-05T09:39:39.549Z,70.98
2023-03-05T09:42:27.611Z,68.98
2023-03-05T09:45:08.162Z,64.80
2023-03-05T09:47:46.010Z,66.58
2023-03-05T09:50:21.022Z,63.63
2023-03-05T09:52:53.748Z,64.52
2023-03-05T09:55:25.407Z,64.25
2023-03-05T09:57:55.062Z,63.06
2023-03-05T10:00:38.238Z,63.31
2023-03-05T10:03:15.059Z,62.13
2023-03-05T10:05:53.002Z,63.78
2023-03-05T10:08:23.020Z,61.50
2023-03-05T10:10:52.379Z,61.24
2023-03-05T10:13:24.238Z,60.18
2023-03-05T10:15:58.095Z,60.94
2023-03-05T10:18:32.855Z,58.99
2023-03-05T10:21:01.373Z,61.04
2023-03-05T10:23:50.450Z,58.66
2023-03-05T10:26:31.333Z,59.95
2023-03-05T10:29:13.281Z,59.56
2023-03-05T10:32:07.300Z,59.68
2023-03-05T10:35:02.783Z,58.31
2023-03-05T10:37:46.974Z,59.32
2023-03-05T10:40:23.226Z,59.02
2023-03-05T10:42:56.498Z,58.53
2023-03-05T10:45:27.965Z,57.64
2023-03-05T10:47:59.246Z,57.82
2023-03-05T10:50:28.628Z,56.63
2023-03-05T10:53:07.275Z,55.56
2023-03-05T10:55:33.661Z,54.03
2023-03-05T10:58:01.994Z,53.22
2023-03-05T11:00:28.739Z,53.87
2023-03-05T11:02:59.049Z,52.14
2023-03-05T11:05:45.172Z,52.03
2023-03-05T11:08:30.967Z,51.98
2023-03-05T11:11:13.132Z,52.91
2023-03-05T11:13:49.785Z,53.59
2023-03-05T11:16:19.965Z,54.47
2023-03-05T11:18:47.411Z,55.99
2023-03-05T11:21:21.969Z,57.11
2023-03-05T11:24:04.819Z,57.89
2023-03-05T11:26:31.980Z,56.11
2023-03-05T11:29:01.261Z,55.82
2023-03-05T11:31:29.514Z,56.73
2023-03-05T11:34:01.740Z,57.18
2023-03-05T11:36:31.330Z,62.48
2023-03-05T11:39:00.288Z,59.31
2023-03-05T11:41:34.002Z,57.92
2023-03-05T11:44:01.863Z,59.67
2023-03-05T11:46:29.330Z,60.84
2023-03-05T11:48:56.332Z,60.78
2023-03-05T11:51:28.627Z,60.59
2023-03-05T11:54:03.602Z,59.45
2023-03-05T11:56:33.690Z,60.50
2023-03-05T11:59:02.754Z,60.69
2023-03-05T12:01:31.866Z,60.80
2023-03-05T12:03:58.870Z,59.21
2023-03-05T12:06:29.797Z,59.31
2023-03-05T12:09:01.777Z,59.08
2023-03-05T12:11:30.523Z,58.79
2023-03-05T12:13:58.907Z,60.84
2023-03-05T12:16:31.076Z,62.04
2023-03-05T12:19:10.325Z,63.92
2023-03-05T12:21:38.978Z,62.58
2023-03-05T12:24:35.614Z,62.01
2023-03-05T12:27:16.841Z,62.40
2023-03-05T12:29:50.685Z,60.57
2023-03-05T12:32:35.570Z,60.46
2023-03-05T12:35:02.923Z,58.91
2023-03-05T12:37:57.596Z,57.50
2023-03-05T12:40:27.133Z,59.19
2023-03-05T12:42:55.785Z,58.98
2023-03-05T12:45:41.287Z,58.16
2023-03-05T12:48:43.635Z,56.18
2023-03-05T12:51:20.643Z,56.23
2023-03-05T12:53:51.130Z,55.29
2023-03-05T12:56:22.420Z,55.23
2023-03-05T12:58:52.190Z,55.29
2023-03-05T13:01:35.938Z,56.75
2023-03-05T13:04:05.489Z,58.25
2023-03-05T13:06:34.446Z,60.11
2023-03-05T13:09:03.703Z,60.09
2023-03-05T13:11:33.771Z,60.00
2023-03-05T13:14:01.504Z,58.08
2023-03-05T13:16:31.342Z,61.56
2023-03-05T13:19:00.980Z,59.06
2023-03-05T13:21:28.866Z,61.06
2023-03-05T13:23:58.150Z,59.26
2023-03-05T13:26:26.361Z,57.99
2023-03-05T13:29:12.934Z,57.40
2023-03-05T13:31:44.276Z,57.07
2023-03-05T13:34:17.720Z,56.13
2023-03-05T13:36:57.769Z,56.37
2023-03-05T13:39:28.092Z,57.08
2023-03-05T13:41:57.432Z,59.23
2023-03-05T13:44:25.140Z,58.68
2023-03-05T13:46:51.504Z,58.51
2023-03-05T13:49:21.190Z,57.99
2023-03-05T13:51:49.830Z,57.95
2023-03-05T13:54:17.806Z,57.32
2023-03-05T13:56:53.321Z,56.22
2023-03-05T13:59:21.194Z,56.79
2023-03-05T14:01:51.306Z,56.07
2023-03-05T14:04:20.846Z,54.42
2023-03-05T14:06:50.195Z,54.74
2023-03-05T14:09:22.656Z,55.15
2023-03-05T14:11:54.722Z,55.23
2023-03-05T14:14:22.852Z,55.11
2023-03-05T14:16:50.622Z,54.10
2023-03-05T14:19:35.764Z,55.44
2023-03-05T14:22:03.107Z,54.53
2023-03-05T14:24:29.498Z,54.54
2023-03-05T14:26:57.067Z,55.39
2023-03-05T14:29:25.166Z,54.97
2023-03-05T14:31:55.062Z,54.38
2023-03-05T14:34:25.756Z,54.16
2023-03-05T14:36:54.341Z,54.16
2023-03-05T14:39:29.077Z,53.91
2023-03-05T14:41:55.463Z,55.10
2023-03-05T14:44:21.939Z,54.64
2023-03-05T14:46:49.441Z,55.60
2023-03-05T14:49:17.494Z,54.93
2023-03-05T14:51:45.693Z,55.42
2023-03-05T14:54:20.395Z,55.33
2023-03-05T14:56:46.847Z,56.82
2023-03-05T14:59:13.281Z,56.47
2023-03-05T15:01:39.739Z,55.85
2023-03-05T15:04:06.165Z,55.68
2023-03-05T15:06:36.717Z,55.51
2023-03-05T15:09:04.773Z,55.05
2023-03-05T15:11:31.239Z,54.05
2023-03-05T15:13:57.566Z,54.10
2023-03-05T15:16:24.019Z,53.87
2023-03-05T15:18:50.385Z,54.19
2023-03-05T15:21:16.949Z,55.42
2023-03-05T15:23:44.647Z,55.08
2023-03-05T15:26:14.087Z,55.92
2023-03-05T15:28:43.202Z,54.51
2023-03-05T15:31:10.091Z,57.09
2023-03-05T15:33:36.570Z,55.29
2023-03-05T15:36:03.198Z,55.59
2023-03-05T15:38:29.561Z,55.73
2023-03-05T15:40:59.333Z,56.37
2023-03-05T15:43:26.969Z,58.09
2023-03-05T15:45:53.314Z,58.67
2023-03-05T15:48:19.673Z,60.20
2023-03-05T15:50:46.050Z,57.74
2023-03-05T15:53:14.423Z,57.08
2023-03-05T15:55:41.942Z,57.68
2023-03-05T15:58:12.962Z,57.03
2023-03-05T16:00:39.389Z,55.87
2023-03-05T16:03:05.768Z,56.30
2023-03-05T16:05:33.669Z,58.08
2023-03-05T16:08:00.565Z,56.53
2023-03-05T16:10:29.350Z,57.07
2023-03-05T16:13:00.507Z,56.42
2023-03-05T16:15:28.841Z,56.06
2023-03-05T16:17:58.710Z,56.37
2023-03-05T16:20:25.167Z,56.24
2023-03-05T16:22:51.507Z,56.31
2023-03-05T16:25:18.143Z,55.97
2023-03-05T16:27:44.695Z,57.30
2023-03-05T16:30:14.826Z,57.64
2023-03-05T16:32:42.789Z,57.42
2023-03-05T16:35:10.002Z,60.06
2023-03-05T16:37:36.338Z,58.97
2023-03-05T16:40:02.819Z,59.85
2023-03-05T16:42:29.617Z,60.10
2023-03-05T16:44:55.937Z,59.53
2023-03-05T16:47:22.369Z,59.08
2023-03-05T16:49:50.392Z,59.37
2023-03-05T16:52:18.985Z,58.61
2023-03-05T16:54:45.776Z,59.06
2023-03-05T16:57:12.441Z,59.50
2023-03-05T16:59:39.014Z,59.00
2023-03-05T17:02:06.044Z,58.47
2023-03-05T17:04:32.723Z,58.38
2023-03-05T17:07:00.504Z,58.29
2023-03-05T17:09:26.933Z,58.53
2023-03-05T17:11:54.229Z,59.83
2023-03-05T17:14:20.791Z,60.91
2023-03-05T17:16:47.187Z,61.27
2023-03-05T17:19:13.927Z,62.18
2023-03-05T17:21:42.350Z,64.16
2023-03-05T17:24:11.153Z,62.94
2023-03-05T17:26:38.041Z,62.83
2023-03-05T17:29:05.442Z,63.06
2023-03-05T17:31:32.093Z,64.42
2023-03-05T17:33:58.567Z,64.23
2023-03-05T17:36:25.996Z,66.26
2023-03-05T17:38:53.360Z,65.67
2023-03-05T17:41:21.801Z,63.93
2023-03-05T17:43:48.269Z,63.01
2023-03-05T17:46:15.229Z,63.18
2023-03-05T17:48:41.856Z,62.97
2023-03-05T17:51:10.239Z,63.94
2023-03-05T17:53:36.853Z,63.94
2023-03-05T17:56:06.805Z,63.48
2023-03-05T17:58:34.723Z,63.50
2023-03-05T18:01:01.504Z,64.42
2023-03-05T18:03:28.293Z,63.50
2023-03-05T18:05:54.636Z,66.18
2023-03-05T18:08:20.983Z,64.10
2023-03-05T18:10:47.361Z,64.12
2023-03-05T18:13:13.720Z,65.49
2023-03-05T18:15:41.373Z,65.27
2023-03-05T18:18:07.762Z,64.05
2023-03-05T18:20:36.419Z,64.69
2023-03-05T18:23:04.970Z,64.25
2023-03-05T18:25:31.822Z,63.83
2023-03-05T18:27:59.135Z,64.29
2023-03-05T18:30:25.698Z,64.24
2023-03-05T18:32:54.180Z,64.09
2023-03-05T18:35:21.129Z,65.56
2023-03-05T18:37:47.559Z,66.56
2023-03-05T18:40:18.061Z,65.58
2023-03-05T18:42:45.503Z,65.16
2023-03-05T18:45:14.545Z,64.75
2023-03-05T18:47:41.021Z,66.03
2023-03-05T18:50:10.585Z,64.74
2023-03-05T18:52:36.979Z,65.21
2023-03-05T18:55:03.808Z,65.93
2023-03-05T18:57:30.178Z,64.89
2023-03-05T18:59:56.529Z,65.33
2023-03-05T19:02:22.902Z,65.76
2023-03-05T19:04:49.246Z,65.74
2023-03-05T19:07:16.938Z,66.05
2023-03-05T19:09:43.481Z,65.31
2023-03-05T19:12:09.838Z,66.00
2023-03-05T19:14:36.170Z,66.14
2023-03-05T19:17:02.569Z,67.53
2023-03-05T19:19:28.940Z,66.79
2023-03-05T19:21:56.472Z,68.03
2023-03-05T19:24:26.243Z,69.69
2023-03-05T19:26:52.955Z,68.51
2023-03-05T19:29:19.307Z,67.51
2023-03-05T19:31:46.218Z,66.75
2023-03-05T19:34:12.858Z,66.37
2023-03-05T19:36:39.254Z,67.61
2023-03-05T19:39:07.000Z,67.26
2023-03-05T19:41:35.576Z,68.38
2023-03-05T19:44:02.598Z,67.95
2023-03-05T19:46:29.103Z,67.76
2023-03-05T19:48:55.549Z,68.23
2023-03-05T19:51:24.123Z,66.89
2023-03-05T19:53:51.110Z,66.73
2023-03-05T19:56:18.232Z,66.83
2023-03-05T19:58:47.047Z,66.51
2023-03-05T20:01:15.106Z,66.70
2023-03-05T20:03:43.530Z,66.52
2023-03-05T20:06:09.911Z,66.62
2023-03-05T20:08:36.431Z,68.54
2023-03-05T20:11:02.842Z,68.48
2023-03-05T20:13:29.384Z,67.18
2023-03-05T20:15:57.178Z,67.33
2023-03-05T20:18:24.077Z,66.97
2023-03-05T20:20:54.900Z,65.97
2023-03-05T20:23:21.940Z,67.16
2023-03-05T20:25:48.595Z,66.25
2023-03-05T20:28:15.238Z,66.17
2023-03-05T20:30:41.774Z,67.15
2023-03-05T20:33:09.520Z,67.22
2023-03-05T20:35:38.633Z,66.78
2023-03-05T20:38:05.493Z,67.21
2023-03-05T20:40:31.887Z,68.22
2023-03-05T20:42:58.224Z,67.78
2023-03-05T20:45:24.618Z,68.16
2023-03-05T20:47:50.974Z,67.63
2023-03-05T20:50:19.123Z,69.53
2023-03-05T20:52:45.509Z,68.85
2023-03-05T20:55:12.259Z,68.04
2023-03-05T20:57:38.647Z,68.35
2023-03-05T21:00:07.882Z,67.52
2023-03-05T21:02:34.245Z,67.54
2023-03-05T21:05:00.635Z,68.92
2023-03-05T21:07:28.367Z,68.51
2023-03-05T21:09:54.764Z,69.87
2023-03-05T21:12:21.138Z,68.85
2023-03-05T21:14:47.501Z,70.00
2023-03-05T21:17:13.893Z,68.97
2023-03-05T21:19:40.312Z,69.21
2023-03-05T21:22:06.675Z,68.94
2023-03-05T21:24:34.375Z,68.27
2023-03-05T21:27:00.736Z,68.43
2023-03-05T21:29:27.270Z,70.13
2023-03-05T21:31:53.765Z,68.37
2023-03-05T21:34:20.114Z,70.23
2023-03-05T21:36:46.508Z,69.07
2023-03-05T21:39:12.856Z,67.54
2023-03-05T21:41:40.505Z,67.93
2023-03-05T21:44:06.889Z,68.63
2023-03-05T21:46:33.243Z,68.24
2023-03-05T21:48:59.614Z,69.86
2023-03-05T21:51:26.196Z,69.54
2023-03-05T21:53:52.530Z,68.03
2023-03-05T21:56:18.891Z,68.14
2023-03-05T21:58:47.423Z,68.83
2023-03-05T22:01:15.630Z,69.31
2023-03-05T22:03:42.071Z,67.37
2023-03-05T22:06:08.933Z,67.66
2023-03-05T22:08:35.321Z,67.39
2023-03-05T22:11:01.684Z,66.31
2023-03-05T22:13:28.061Z,66.63
2023-03-05T22:15:57.336Z,67.86
2023-03-05T22:18:26.168Z,67.13
2023-03-05T22:20:53.535Z,64.92
2023-03-05T22:23:21.786Z,65.47
2023-03-05T22:25:55.524Z,66.28
2023-03-05T22:28:21.764Z,67.66
2023-03-05T22:30:48.142Z,66.26
2023-03-05T22:33:15.884Z,65.44
2023-03-05T22:35:42.600Z,67.41
2023-03-05T22:38:09.622Z,66.52
2023-03-05T22:40:36.372Z,68.14
2023-03-05T22:43:02.855Z,67.47
2023-03-05T22:45:29.375Z,68.21
2023-03-05T22:47:55.839Z,66.62
2023-03-05T22:50:23.508Z,65.99
2023-03-05T22:52:50.096Z,66.23
2023-03-05T22:55:16.892Z,65.12
2023-03-05T22:57:43.658Z,64.69
2023-03-05T23:00:13.869Z,64.47
2023-03-05T23:02:40.460Z,64.66
2023-03-05T23:05:07.773Z,64.67
2023-03-05T23:07:37.145Z,65.83
2023-03-05T23:10:08.074Z,67.31
2023-03-05T23:12:36.530Z,65.29
2023-03-05T23:15:06.016Z,65.00
2023-03-05T23:17:32.516Z,65.38
2023-03-05T23:19:58.897Z,64.70
2023-03-05T23:22:25.282Z,63.61
2023-03-05T23:24:53.007Z,64.92
2023-03-05T23:27:19.469Z,64.92
2023-03-05T23:29:45.893Z,63.94
2023-03-05T23:32:12.345Z,63.28
2023-03-05T23:34:38.710Z,64.61
2023-03-05T23:37:05.197Z,65.84
2023-03-05T23:39:31.574Z,64.72
2023-03-05T23:41:59.282Z,65.25
2023-03-05T23:44:25.609Z,64.86
2023-03-05T23:46:51.986Z,63.67
2023-03-05T23:49:18.442Z,63.30
2023-03-05T23:51:44.810Z,63.68
2023-03-05T23:54:11.201Z,64.12
2023-03-05T23:56:37.559Z,63.58
2023-03-05T23:59:05.254Z,64.13
